createdAt,value
2022-12-23T00:04:28.694Z,8.8
2022-12-23T00:09:28.649Z,8.8
2022-12-23T00:14:28.674Z,8.8
2022-12-23T00:19:28.753Z,8.8
2022-12-23T00:24:28.694Z,8.8
2022-12-23T00:29:28.672Z,8.8
2022-12-23T00:34:28.650Z,8.8
2022-12-23T00:39:28.664Z,8.8
2022-12-23T00:44:28.711Z,8.8
2022-12-23T00:49:28.692Z,8.8
2022-12-23T00:54:28.687Z,8.9
2022-12-23T00:59:28.660Z,8.9
2022-12-23T01:04:28.668Z,8.9
2022-12-23T01:09:28.665Z,9
2022-12-23T01:14:28.706Z,9
2022-12-23T01:19:28.724Z,9
2022-12-23T01:24:28.749Z,9
2022-12-23T01:29:28.735Z,9
2022-12-23T01:34:34.472Z,9
2022-12-23T01:39:28.782Z,9
2022-12-23T01:44:28.787Z,9
2022-12-23T01:49:28.725Z,9
2022-12-23T01:54:28.729Z,9
2022-12-23T01:59:28.749Z,9
2022-12-23T02:04:28.769Z,9
2022-12-23T02:09:28.732Z,9
2022-12-23T02:14:28.738Z,9
2022-12-23T02:19:28.738Z,9
2022-12-23T02:24:28.780Z,9.1
2022-12-23T02:29:28.768Z,9
2022-12-23T02:34:28.772Z,9
2022-12-23T02:39:28.756Z,9.1
2022-12-23T02:44:28.804Z,9.1
2022-12-23T02:49:28.742Z,9
2022-12-23T02:54:28.764Z,9
2022-12-23T02:59:28.741Z,9
2022-12-23T03:04:28.849Z,9
2022-12-23T03:09:28.741Z,9
2022-12-23T03:14:28.761Z,9
2022-12-23T03:19:28.743Z,9
2022-12-23T03:24:28.788Z,9
2022-12-23T03:29:28.771Z,9
2022-12-23T03:51:03.780Z,9
2022-12-23T03:56:03.733Z,9
2022-12-23T04:01:03.769Z,9
2022-12-23T04:06:03.754Z,9
2022-12-23T04:11:03.751Z,9
2022-12-23T04:16:03.762Z,9
2022-12-23T04:21:03.706Z,9
2022-12-23T04:26:03.720Z,9
2022-12-23T04:31:03.881Z,9.1
2022-12-23T04:36:03.872Z,9.1
2022-12-23T04:41:03.801Z,9.1
2022-12-23T04:46:03.731Z,9.1
2022-12-23T04:51:03.757Z,9.1
2022-12-23T04:56:03.701Z,9.1
2022-12-23T05:01:03.783Z,9.1
2022-12-23T05:06:03.708Z,9.2
2022-12-23T05:11:03.733Z,9.2
2022-12-23T05:16:03.746Z,9.2
2022-12-23T05:21:03.733Z,9.2
2022-12-23T05:26:03.741Z,9.2
2022-12-23T05:31:03.833Z,9.2
2022-12-23T05:36:03.741Z,9.2
2022-12-23T05:41:03.762Z,9.2
2022-12-23T05:46:03.834Z,9.1
2022-12-23T05:51:03.736Z,9.1
2022-12-23T05:56:03.728Z,9.1
2022-12-23T06:01:03.721Z,9.1
2022-12-23T06:06:03.723Z,9.1
2022-12-23T06:11:03.742Z,9.1
2022-12-23T06:16:03.745Z,9.1
2022-12-23T06:21:03.742Z,9.1
2022-12-23T06:26:03.789Z,9.1
2022-12-23T06:31:03.780Z,9.1
2022-12-23T06:36:03.771Z,9.1
2022-12-23T06:41:03.946Z,9.1
2022-12-23T06:46:03.825Z,9.1
2022-12-23T06:51:03.780Z,9.1
2022-12-23T06:56:03.771Z,9.1
2022-12-23T07:01:03.827Z,9.1
2022-12-23T07:06:03.773Z,9.1
2022-12-23T07:11:03.805Z,9.1
2022-12-23T07:16:03.996Z,9
2022-12-23T07:21:03.802Z,9
2022-12-23T07:26:03.829Z,9
2022-12-23T07:31:03.839Z,9
2022-12-23T07:36:03.795Z,9
2022-12-23T07:41:03.811Z,9
2022-12-23T07:46:03.835Z,9
2022-12-23T07:51:03.840Z,9
2022-12-23T07:56:03.801Z,9
2022-12-23T08:01:03.844Z,8.9
2022-12-23T08:06:03.822Z,8.9
2022-12-23T08:11:03.801Z,8.9
2022-12-23T08:16:03.847Z,9
2022-12-23T08:21:03.785Z,8.9
2022-12-23T08:26:03.799Z,8.9
2022-12-23T08:31:03.910Z,8.9
2022-12-23T08:36:03.804Z,9
2022-12-23T08:41:03.794Z,9
2022-12-23T08:46:03.898Z,9
2022-12-23T08:51:03.810Z,9
2022-12-23T08:56:03.816Z,9
2022-12-23T09:01:03.835Z,9
2022-12-23T09:06:03.797Z,9
2022-12-23T09:11:03.821Z,9
2022-12-23T09:16:03.854Z,9
2022-12-23T09:21:03.787Z,9
2022-12-23T09:26:03.967Z,9
2022-12-23T09:31:03.857Z,9
2022-12-23T09:36:03.798Z,9
2022-12-23T09:41:03.780Z,9
2022-12-23T09:46:03.944Z,9
2022-12-23T09:51:03.811Z,9
2022-12-23T09:56:03.819Z,9
2022-12-23T10:01:03.825Z,9
2022-12-23T10:06:03.815Z,9.1
2022-12-23T10:11:03.800Z,9.1
2022-12-23T10:16:03.876Z,9.1
2022-12-23T10:21:03.807Z,9.2
2022-12-23T10:26:03.817Z,9.2
2022-12-23T10:31:38.332Z,9.3
2022-12-23T10:36:03.830Z,9.3
2022-12-23T10:41:07.042Z,9.4
2022-12-23T10:46:03.969Z,9.4
2022-12-23T10:51:03.808Z,9.5
2022-12-23T10:56:03.801Z,9.5
2022-12-23T11:01:08.363Z,9.5
2022-12-23T11:06:03.797Z,9.5
2022-12-23T11:11:03.816Z,9.5
2022-12-23T11:16:03.866Z,9.5
2022-12-23T11:21:03.798Z,9.5
2022-12-23T11:26:03.832Z,9.5
2022-12-23T11:31:03.847Z,9.6
2022-12-23T11:36:03.823Z,9.6
2022-12-23T11:41:03.808Z,9.5
2022-12-23T11:46:03.857Z,9.6
2022-12-23T11:51:03.816Z,9.6
2022-12-23T11:56:03.814Z,9.6
2022-12-23T12:01:03.846Z,9.7
2022-12-23T12:06:03.844Z,9.6
2022-12-23T12:11:03.832Z,9.6
2022-12-23T12:16:03.838Z,9.6
2022-12-23T12:21:03.819Z,9.6
2022-12-23T12:26:03.828Z,9.6
2022-12-23T12:31:03.879Z,9.7
2022-12-23T12:36:05.565Z,9.7
2022-12-23T12:41:03.840Z,9.8
2022-12-23T12:46:04.190Z,9.8
2022-12-23T12:51:03.845Z,9.8
2022-12-23T12:56:03.871Z,9.8
2022-12-23T13:01:03.905Z,9.9
2022-12-23T13:06:04.030Z,9.9
2022-12-23T13:11:03.872Z,9.8
2022-12-23T13:16:03.863Z,9.9
2022-12-23T13:21:03.861Z,9.8
2022-12-23T13:26:03.844Z,9.8
2022-12-23T13:31:03.982Z,9.8
2022-12-23T13:36:05.927Z,9.8
2022-12-23T13:41:03.863Z,9.8
2022-12-23T13:46:03.976Z,9.8
2022-12-23T13:51:03.885Z,9.8
2022-12-23T13:56:03.881Z,9.9
2022-12-23T14:01:03.905Z,9.9
2022-12-23T14:06:03.866Z,9.9
2022-12-23T14:11:03.898Z,9.9
2022-12-23T14:16:04.043Z,9.9
2022-12-23T14:21:03.890Z,9.9
2022-12-23T14:26:03.888Z,9.9
2022-12-23T14:31:03.940Z,9.9
2022-12-23T14:36:03.938Z,9.8
2022-12-23T14:41:03.867Z,9.8
2022-12-23T14:46:03.925Z,9.8
2022-12-23T14:51:03.941Z,9.8
2022-12-23T14:56:03.884Z,9.7
2022-12-23T15:01:03.875Z,9.7
2022-12-23T15:06:03.894Z,9.7
2022-12-23T15:11:03.910Z,9.7
2022-12-23T15:16:03.983Z,9.7
2022-12-23T15:21:03.903Z,9.6
2022-12-23T15:26:03.868Z,9.6
2022-12-23T15:31:03.928Z,9.6
2022-12-23T15:36:03.937Z,9.6
2022-12-23T15:41:03.862Z,9.6
2022-12-23T15:46:03.898Z,9.6
2022-12-23T15:51:03.900Z,9.6
2022-12-23T15:56:03.883Z,9.6
2022-12-23T16:01:03.873Z,9.6
2022-12-23T16:06:03.908Z,9.6
2022-12-23T16:11:03.901Z,9.6
2022-12-23T16:16:03.992Z,9.5
2022-12-23T16:21:03.874Z,9.5
2022-12-23T16:26:03.913Z,9.5
2022-12-23T16:31:03.960Z,9.5
2022-12-23T16:36:03.935Z,9.5
2022-12-23T16:41:03.899Z,9.4
2022-12-23T16:46:03.991Z,9.5
2022-12-23T16:51:03.931Z,9.5
2022-12-23T16:56:03.903Z,9.4
2022-12-23T17:01:03.971Z,9.4
2022-12-23T17:06:03.929Z,9.4
2022-12-23T17:11:03.940Z,9.4
2022-12-23T17:16:03.964Z,9.5
2022-12-23T17:21:03.894Z,9.5
2022-12-23T17:26:03.916Z,9.5
2022-12-23T17:31:07.139Z,9.4
2022-12-23T17:36:03.985Z,9.5
2022-12-23T17:41:03.922Z,9.4
2022-12-23T17:46:04.029Z,9.4
2022-12-23T17:51:04.029Z,9.4
2022-12-23T17:56:03.937Z,9.4
2022-12-23T18:01:03.949Z,9.4
2022-12-23T18:06:04.015Z,9.4
2022-12-23T18:11:03.950Z,9.4
2022-12-23T18:16:03.937Z,9.4
2022-12-23T18:21:03.919Z,9.4
2022-12-23T18:26:03.935Z,9.4
2022-12-23T18:31:04.032Z,9.4
2022-12-23T18:36:03.974Z,9.4
2022-12-23T18:41:03.943Z,9.4
2022-12-23T18:46:04.022Z,9.6
2022-12-23T18:51:04.006Z,9.6
2022-12-23T18:56:03.956Z,9.6
2022-12-23T19:01:04.031Z,9.6
2022-12-23T19:06:03.971Z,9.5
2022-12-23T19:11:03.974Z,9.5
2022-12-23T19:16:04.005Z,9.4
2022-12-23T19:21:03.982Z,9.4
2022-12-23T19:26:03.983Z,9.4
2022-12-23T19:31:04.026Z,9.4
2022-12-23T19:36:04.012Z,9.4
2022-12-23T19:41:03.975Z,9.4
2022-12-23T19:46:04.004Z,9.4
2022-12-23T19:51:03.969Z,9.4
2022-12-23T19:56:03.978Z,9.3
2022-12-23T20:01:03.977Z,9.3
2022-12-23T20:06:03.983Z,9.3
2022-12-23T20:11:04.007Z,9.3
2022-12-23T20:16:04.008Z,9.3
2022-12-23T20:21:03.981Z,9.3
2022-12-23T20:26:03.978Z,9.3
2022-12-23T20:31:04.025Z,9.2
2022-12-23T20:36:04.019Z,9.2
2022-12-23T20:41:04.006Z,9.2
2022-12-23T20:46:04.022Z,9.2
2022-12-23T20:51:04.020Z,9.2
2022-12-23T20:56:04.002Z,9.2
2022-12-23T21:01:03.984Z,9.2
2022-12-23T21:06:04.073Z,9.1
2022-12-23T21:11:04.022Z,9.1
2022-12-23T21:16:04.093Z,9.1
2022-12-23T21:21:04.022Z,9.1
2022-12-23T21:26:04.015Z,9.1
2022-12-23T21:31:04.109Z,9.1
2022-12-23T21:36:04.077Z,9.1
2022-12-23T21:41:04.003Z,9.1
2022-12-23T21:46:04.049Z,9.1
2022-12-23T21:51:04.114Z,9
2022-12-23T21:56:04.023Z,9
2022-12-23T22:01:04.104Z,9
2022-12-23T22:06:08.426Z,9
2022-12-23T22:11:04.036Z,9
2022-12-23T22:16:04.092Z,9
2022-12-23T22:21:04.007Z,9
2022-12-23T22:26:04.041Z,9
2022-12-23T22:31:04.124Z,9
2022-12-23T22:36:04.043Z,8.9
2022-12-23T22:41:04.032Z,8.9
2022-12-23T22:46:04.163Z,8.9
2022-12-23T22:51:04.091Z,8.9
2022-12-23T22:56:04.033Z,8.9
2022-12-23T23:01:04.032Z,8.9
2022-12-23T23:06:04.095Z,8.9
2022-12-23T23:11:04.080Z,8.9
2022-12-23T23:16:04.075Z,8.9
2022-12-23T23:21:04.021Z,8.9
2022-12-23T23:26:04.032Z,8.9
2022-12-23T23:31:39.527Z,8.9
2022-12-23T23:36:04.135Z,8.9
2022-12-23T23:41:04.096Z,8.9
2022-12-23T23:46:04.091Z,8.9
2022-12-23T23:51:04.087Z,8.9
2022-12-23T23:56:04.065Z,8.9
